首页
METAR-TAF:

METAR-TAF

机场 :

Joplin Regional Airport

Joplin, 密蘇里州, 美国

纬度: 37-09-22N, 经度: 094-30-02W, 海拔: 299米

当前天气观测

该预报发布于47分钟前的08:53 UTC
风速12节,风向北转东北,有时为19节阵风
温度 4°C
湿度 87%
气压 1020 hPa
能見度: 16.1公里
阴天层高于1200英尺

METAR: KJLN 220853Z AUTO 03012G19KT 10SM OVC012 04/02 A3013 RMK AO2 SLP206 60000 T00390022 50004

时间: 03:40 (09:40 UTC)

预报

该预报发布于4小时和18分钟前的05:22 UTC
预报有效从22日的 06点(UTC)到 23日的 06点(UTC)
风速11节,风向
能見度: 9.7公里
阴天层高于900英尺
小阵雨
从 22日的 0700点(UTC)
风速12节,风向北转东北
能見度: 10公里
阴天层高于1100英尺
附近有阵雨
从 22日的 0900点(UTC)
风速12节,风向北转东北
能見度: 10公里
阴天层高于1300英尺
从 22日的 1600点(UTC)
风速9节,风向东北
能見度: 10公里
阴天层高于1200英尺
几率 30%
从 22日的 16点(UTC)到 22日的 20点(UTC)
能見度: 6.4公里
阴天层高于900英尺
小阵雨
从 22日的 2000点(UTC)
风速9节,风向北转东北
能見度: 10公里
阴天层高于2100英尺
几率 30%
从 22日的 20点(UTC)到 22日的 24点(UTC)
能見度: 6.4公里
阴天层高于1500英尺
小阵雨

TAF: KJLN 220522Z 2206/2306 35011KT 6SM -SHRA OVC009 FM220700 02012KT P6SM VCSH OVC011 FM220900 02012KT P6SM OVC013 FM221600 04009KT P6SM OVC012 PROB30 2216/2220 4SM -SHRA OVC009 FM222000 02009KT P6SM OVC021 PROB30 2220/2224 4SM -SHRA OVC015

超过4000个机场的气象观测和天气预报(METAR&TAF报告)。

可查询的气象台以黄色和红色小点在地图上表示。

将鼠标移到小点上方,可查看气象台名称。

然后点击查看天气观测和预报。

如需切换地图:点击带黑十字的绿色按钮放大地图;点击带横线的绿色按钮缩小地图;或者点击绿色箭头查看邻近地区的地图。


METAR-TAF: